This is the latest recevied weather packets stored in our database for station/object WK7G. If no packets are shown the sender has not sent any weather packets the latest 10 day(s).
| Time | Temp. | Humidity | Pressure | Rain* | Wind** | Luminosity | Snow |
|---|---|---|---|---|---|---|---|
| 1777923767 | 16.11° C | 41% | 1002.6 hPa | 0 mm | - | 918 W/m² | - |
| 1777923463 | 16.11° C | 43% | 1002.8 hPa | 0 mm | - | 173 W/m² | - |
| 1777923161 | 16.67° C | 35% | 1002.7 hPa | 0 mm | - | 95 W/m² | - |
| 1777922859 | 17.78° C | 36% | 1002.6 hPa | 0 mm | - | 106 W/m² | - |
| 1777922557 | 18.89° C | 33% | 1002.5 hPa | 0 mm | - | 182 W/m² | - |
| 1777922255 | 18.33° C | 36% | 1002.6 hPa | 0 mm | - | 839 W/m² | - |
| 1777921952 | 17.22° C | 38% | 1002.7 hPa | 0 mm | - | 429 W/m² | - |
| 1777921647 | 17.22° C | 36% | 1002.8 hPa | 0 mm | - | 215 W/m² | - |
| 1777921344 | 17.78° C | 35% | 1003.1 hPa | 0 mm | - | 228 W/m² | - |
| 1777921040 | 17.78° C | 35% | 1003 hPa | 0 mm | - | 711 W/m² | - |
| 1777920433 | 17.78° C | 38% | 1003 hPa | 0 mm | - | 1072 W/m² | - |
| 1777919522 | 17.22° C | 37% | 1003.6 hPa | 0 mm | - | 229 W/m² | - |
| 1777919220 | 16.67° C | 37% | 1003.1 hPa | 0 mm | - | 511 W/m² | - |
| 1777918615 | 16.67° C | 37% | 1003.4 hPa | 0 mm | - | 239 W/m² | - |
| 1777918312 | 17.22° C | 35% | 1003.2 hPa | 0 mm | - | 299 W/m² | - |
| 1777917709 | 16.67° C | 37% | 1003.4 hPa | 0 mm | - | 576 W/m² | - |
| 1777917103 | 18.33° C | 34% | 1003.3 hPa | 0 mm | - | 813 W/m² | - |
| 1777916195 | 17.78° C | 36% | 1003.6 hPa | 0 mm | - | 965 W/m² | - |
| 1777915893 | 17.22° C | 37% | 1003.2 hPa | 0 mm | - | 669 W/m² | - |
| 1777915589 | 17.22° C | 35% | 1003.4 hPa | 0 mm | - | 344 W/m² | - |
| 1777911038 | 15.56° C | 42% | 1003.8 hPa | 0 mm | - | 613 W/m² | - |
| 1777909522 | 15.56° C | 44% | 1003.6 hPa | 0 mm | - | 609 W/m² | - |
| 1777908917 | 15.56° C | 42% | 1003.6 hPa | 0 mm | - | 480 W/m² | - |
| 1777907095 | 14.44° C | 47% | 1004 hPa | 0 mm | - | 290 W/m² | - |
| 1777906186 | 13.33° C | 47% | 1003.9 hPa | 0 mm | - | 367 W/m² | - |
* Rain latest hour (hover to see other rain measurements)
** Current wind speed in m/s (hover to see current wind gust speed)